sensor_id;sensor_type;location;lat;lon;timestamp;pressure;altitude;pressure_sealevel;temperature;humidity
64698;BME280;51124;53.394;-6.294;2024-01-11T00:01:49;102994.51;;;16.61;11.61
64698;BME280;51124;53.394;-6.294;2024-01-11T00:04:17;102994.85;;;17.13;11.53
64698;BME280;51124;53.394;-6.294;2024-01-11T00:06:45;102991.29;;;17.07;11.64
64698;BME280;51124;53.394;-6.294;2024-01-11T00:09:16;102991.82;;;17.54;11.61
64698;BME280;51124;53.394;-6.294;2024-01-11T00:11:43;102997.86;;;17.05;11.64
64698;BME280;51124;53.394;-6.294;2024-01-11T00:14:11;102995.65;;;17.35;11.55
64698;BME280;51124;53.394;-6.294;2024-01-11T00:16:38;102999.50;;;16.80;11.63
64698;BME280;51124;53.394;-6.294;2024-01-11T00:19:06;102997.78;;;16.52;11.66
64698;BME280;51124;53.394;-6.294;2024-01-11T00:21:34;103001.18;;;17.23;11.62
64698;BME280;51124;53.394;-6.294;2024-01-11T00:24:01;103000.63;;;16.71;11.61
64698;BME280;51124;53.394;-6.294;2024-01-11T00:26:29;102997.36;;;16.17;11.36
64698;BME280;51124;53.394;-6.294;2024-01-11T00:28:56;102996.34;;;14.28;11.17
64698;BME280;51124;53.394;-6.294;2024-01-11T00:31:23;102998.76;;;14.62;10.69
64698;BME280;51124;53.394;-6.294;2024-01-11T00:33:51;102999.53;;;14.68;10.35
64698;BME280;51124;53.394;-6.294;2024-01-11T00:36:19;102999.87;;;15.25;10.28
64698;BME280;51124;53.394;-6.294;2024-01-11T00:38:47;102997.80;;;15.11;10.14
64698;BME280;51124;53.394;-6.294;2024-01-11T00:41:14;102991.96;;;14.41;9.94
64698;BME280;51124;53.394;-6.294;2024-01-11T00:43:42;102996.86;;;14.24;9.96
64698;BME280;51124;53.394;-6.294;2024-01-11T00:46:09;102994.70;;;15.11;9.65
64698;BME280;51124;53.394;-6.294;2024-01-11T00:48:36;102998.55;;;14.64;9.60
64698;BME280;51124;53.394;-6.294;2024-01-11T00:51:06;102995.93;;;14.68;9.57
64698;BME280;51124;53.394;-6.294;2024-01-11T00:53:33;103005.35;;;14.55;9.65
64698;BME280;51124;53.394;-6.294;2024-01-11T00:56:01;102997.87;;;14.87;9.57
64698;BME280;51124;53.394;-6.294;2024-01-11T00:58:28;102998.14;;;14.50;9.49
64698;BME280;51124;53.394;-6.294;2024-01-11T01:00:56;102998.67;;;14.63;9.43
64698;BME280;51124;53.394;-6.294;2024-01-11T01:03:23;102999.85;;;14.85;9.37
64698;BME280;51124;53.394;-6.294;2024-01-11T01:05:51;102999.01;;;14.21;9.32
64698;BME280;51124;53.394;-6.294;2024-01-11T01:08:18;102999.51;;;14.79;9.18
64698;BME280;51124;53.394;-6.294;2024-01-11T01:10:45;103004.36;;;14.58;9.19
64698;BME280;51124;53.394;-6.294;2024-01-11T01:13:13;102999.33;;;14.73;9.22
64698;BME280;51124;53.394;-6.294;2024-01-11T01:15:40;103004.72;;;14.78;9.18
64698;BME280;51124;53.394;-6.294;2024-01-11T01:18:08;103002.82;;;14.87;9.24
64698;BME280;51124;53.394;-6.294;2024-01-11T01:20:35;103005.17;;;15.01;9.12
64698;BME280;51124;53.394;-6.294;2024-01-11T01:23:03;103002.97;;;15.09;9.06
64698;BME280;51124;53.394;-6.294;2024-01-11T01:25:30;103001.07;;;14.40;9.09
64698;BME280;51124;53.394;-6.294;2024-01-11T01:27:58;103001.83;;;14.89;9.04
64698;BME280;51124;53.394;-6.294;2024-01-11T01:30:25;102998.12;;;14.75;9.01
64698;BME280;51124;53.394;-6.294;2024-01-11T01:32:53;103002.07;;;15.06;9.10
64698;BME280;51124;53.394;-6.294;2024-01-11T01:35:20;103005.53;;;14.89;9.16
64698;BME280;51124;53.394;-6.294;2024-01-11T01:37:48;103009.30;;;15.15;9.08
64698;BME280;51124;53.394;-6.294;2024-01-11T01:40:15;103007.37;;;14.36;9.06
64698;BME280;51124;53.394;-6.294;2024-01-11T01:42:43;103006.50;;;14.47;9.11
64698;BME280;51124;53.394;-6.294;2024-01-11T01:45:11;103007.03;;;14.93;9.11
64698;BME280;51124;53.394;-6.294;2024-01-11T01:47:40;103003.87;;;14.51;9.13
64698;BME280;51124;53.394;-6.294;2024-01-11T01:50:08;103000.54;;;13.84;9.09
64698;BME280;51124;53.394;-6.294;2024-01-11T01:52:37;103003.48;;;14.70;9.08
64698;BME280;51124;53.394;-6.294;2024-01-11T01:55:06;103006.14;;;14.77;8.97
64698;BME280;51124;53.394;-6.294;2024-01-11T01:57:36;103008.01;;;15.53;9.04
64698;BME280;51124;53.394;-6.294;2024-01-11T02:00:06;103008.81;;;14.53;9.16
64698;BME280;51124;53.394;-6.294;2024-01-11T02:02:36;103014.43;;;14.57;9.17
64698;BME280;51124;53.394;-6.294;2024-01-11T02:05:05;103018.41;;;14.69;9.13
64698;BME280;51124;53.394;-6.294;2024-01-11T02:07:33;103023.48;;;13.55;9.22
64698;BME280;51124;53.394;-6.294;2024-01-11T02:10:00;103027.39;;;14.77;9.12
64698;BME280;51124;53.394;-6.294;2024-01-11T02:12:28;103029.69;;;15.04;9.15
64698;BME280;51124;53.394;-6.294;2024-01-11T02:14:56;103033.72;;;14.56;9.19
64698;BME280;51124;53.394;-6.294;2024-01-11T02:17:23;103042.52;;;13.42;9.22
64698;BME280;51124;53.394;-6.294;2024-01-11T02:19:50;103038.03;;;14.32;9.08
64698;BME280;51124;53.394;-6.294;2024-01-11T02:22:23;103036.01;;;14.32;8.93
64698;BME280;51124;53.394;-6.294;2024-01-11T02:24:51;103043.52;;;14.13;9.05
64698;BME280;51124;53.394;-6.294;2024-01-11T02:27:19;103043.02;;;15.46;9.00
64698;BME280;51124;53.394;-6.294;2024-01-11T02:29:46;103049.46;;;16.96;9.35
64698;BME280;51124;53.394;-6.294;2024-01-11T02:32:13;103050.29;;;16.41;9.67
64698;BME280;51124;53.394;-6.294;2024-01-11T02:34:41;103049.09;;;14.97;9.77
64698;BME280;51124;53.394;-6.294;2024-01-11T02:37:09;103057.00;;;17.69;9.77
64698;BME280;51124;53.394;-6.294;2024-01-11T02:39:37;103063.73;;;17.66;10.24
64698;BME280;51124;53.394;-6.294;2024-01-11T02:42:05;103066.21;;;17.28;10.62
64698;BME280;51124;53.394;-6.294;2024-01-11T02:44:33;103066.36;;;17.13;10.85
64698;BME280;51124;53.394;-6.294;2024-01-11T02:47:01;103066.19;;;17.04;11.01
64698;BME280;51124;53.394;-6.294;2024-01-11T02:49:28;103067.34;;;16.42;11.08
64698;BME280;51124;53.394;-6.294;2024-01-11T02:51:56;103070.78;;;16.63;11.14
64698;BME280;51124;53.394;-6.294;2024-01-11T02:54:23;103069.46;;;17.40;11.13
64698;BME280;51124;53.394;-6.294;2024-01-11T02:56:51;103073.50;;;16.58;11.19
64698;BME280;51124;53.394;-6.294;2024-01-11T02:59:18;103070.13;;;16.20;11.26
64698;BME280;51124;53.394;-6.294;2024-01-11T03:01:46;103071.86;;;16.91;11.21
64698;BME280;51124;53.394;-6.294;2024-01-11T03:04:14;103072.32;;;17.08;11.30
64698;BME280;51124;53.394;-6.294;2024-01-11T03:06:41;103075.10;;;17.02;11.32
64698;BME280;51124;53.394;-6.294;2024-01-11T03:09:09;103073.02;;;16.13;11.32
64698;BME280;51124;53.394;-6.294;2024-01-11T03:11:36;103071.37;;;17.07;11.35
64698;BME280;51124;53.394;-6.294;2024-01-11T03:14:04;103076.98;;;16.92;11.27
64698;BME280;51124;53.394;-6.294;2024-01-11T03:16:32;103084.24;;;17.13;11.45
64698;BME280;51124;53.394;-6.294;2024-01-11T03:18:59;103087.83;;;16.39;11.41
64698;BME280;51124;53.394;-6.294;2024-01-11T03:21:27;103085.55;;;17.09;11.42
64698;BME280;51124;53.394;-6.294;2024-01-11T03:23:54;103079.35;;;17.51;11.38
64698;BME280;51124;53.394;-6.294;2024-01-11T03:26:22;103077.60;;;16.31;11.46
64698;BME280;51124;53.394;-6.294;2024-01-11T03:28:50;103079.84;;;14.61;11.22
64698;BME280;51124;53.394;-6.294;2024-01-11T03:31:17;103086.38;;;14.26;10.77
64698;BME280;51124;53.394;-6.294;2024-01-11T03:33:44;103082.96;;;13.99;10.44
64698;BME280;51124;53.394;-6.294;2024-01-11T03:36:12;103083.79;;;14.68;10.08
64698;BME280;51124;53.394;-6.294;2024-01-11T03:38:40;103085.76;;;14.06;10.10
64698;BME280;51124;53.394;-6.294;2024-01-11T03:41:09;103087.47;;;14.12;9.82
64698;BME280;51124;53.394;-6.294;2024-01-11T03:43:37;103095.99;;;13.74;9.62
64698;BME280;51124;53.394;-6.294;2024-01-11T03:46:05;103087.13;;;14.36;9.47
64698;BME280;51124;53.394;-6.294;2024-01-11T03:48:32;103088.24;;;13.91;9.53
64698;BME280;51124;53.394;-6.294;2024-01-11T03:51:00;103090.10;;;14.95;9.33
64698;BME280;51124;53.394;-6.294;2024-01-11T03:53:27;103093.59;;;15.08;9.32
64698;BME280;51124;53.394;-6.294;2024-01-11T03:55:55;103094.01;;;14.59;9.32
64698;BME280;51124;53.394;-6.294;2024-01-11T03:58:22;103096.35;;;14.13;9.37
64698;BME280;51124;53.394;-6.294;2024-01-11T04:00:50;103093.31;;;14.10;9.28
64698;BME280;51124;53.394;-6.294;2024-01-11T04:03:17;103097.52;;;14.37;9.20
64698;BME280;51124;53.394;-6.294;2024-01-11T04:05:44;103098.34;;;13.82;9.30
64698;BME280;51124;53.394;-6.294;2024-01-11T04:08:12;103089.93;;;14.57;9.13
64698;BME280;51124;53.394;-6.294;2024-01-11T04:10:39;103093.72;;;14.26;9.13
64698;BME280;51124;53.394;-6.294;2024-01-11T04:13:08;103094.89;;;13.73;9.00
64698;BME280;51124;53.394;-6.294;2024-01-11T04:15:36;103095.02;;;14.04;8.85
64698;BME280;51124;53.394;-6.294;2024-01-11T04:18:03;103099.32;;;14.70;9.04
64698;BME280;51124;53.394;-6.294;2024-01-11T04:20:31;103102.63;;;14.12;9.08
64698;BME280;51124;53.394;-6.294;2024-01-11T04:22:58;103105.78;;;13.97;9.05
64698;BME280;51124;53.394;-6.294;2024-01-11T04:25:25;103104.35;;;14.43;8.99
64698;BME280;51124;53.394;-6.294;2024-01-11T04:27:53;103103.82;;;14.09;9.03
64698;BME280;51124;53.394;-6.294;2024-01-11T04:30:20;103100.73;;;14.75;8.93
64698;BME280;51124;53.394;-6.294;2024-01-11T04:32:48;103099.76;;;14.56;9.00
64698;BME280;51124;53.394;-6.294;2024-01-11T04:35:15;103100.42;;;14.13;9.06
64698;BME280;51124;53.394;-6.294;2024-01-11T04:37:42;103102.85;;;14.23;8.97
64698;BME280;51124;53.394;-6.294;2024-01-11T04:40:10;103105.81;;;15.20;8.86
64698;BME280;51124;53.394;-6.294;2024-01-11T04:42:38;103108.21;;;14.88;8.97
64698;BME280;51124;53.394;-6.294;2024-01-11T04:45:06;103109.31;;;14.74;9.09
64698;BME280;51124;53.394;-6.294;2024-01-11T04:47:33;103118.25;;;14.03;9.05
64698;BME280;51124;53.394;-6.294;2024-01-11T04:50:00;103117.21;;;14.38;8.96
64698;BME280;51124;53.394;-6.294;2024-01-11T04:52:28;103118.85;;;15.19;9.01
64698;BME280;51124;53.394;-6.294;2024-01-11T04:54:55;103118.26;;;14.13;8.91
64698;BME280;51124;53.394;-6.294;2024-01-11T04:57:22;103122.73;;;13.97;9.10
64698;BME280;51124;53.394;-6.294;2024-01-11T04:59:50;103129.46;;;15.01;9.06
64698;BME280;51124;53.394;-6.294;2024-01-11T05:02:17;103127.56;;;14.13;9.12
64698;BME280;51124;53.394;-6.294;2024-01-11T05:04:44;103130.49;;;13.72;9.10
64698;BME280;51124;53.394;-6.294;2024-01-11T05:07:12;103132.80;;;14.46;8.96
64698;BME280;51124;53.394;-6.294;2024-01-11T05:09:39;103133.39;;;14.54;8.97
64698;BME280;51124;53.394;-6.294;2024-01-11T05:12:07;103135.36;;;15.26;9.02
64698;BME280;51124;53.394;-6.294;2024-01-11T05:14:34;103136.98;;;15.29;8.96
64698;BME280;51124;53.394;-6.294;2024-01-11T05:17:02;103140.53;;;13.93;9.04
64698;BME280;51124;53.394;-6.294;2024-01-11T05:19:29;103140.20;;;14.59;8.81
64698;BME280;51124;53.394;-6.294;2024-01-11T05:21:56;103139.62;;;14.44;8.89
64698;BME280;51124;53.394;-6.294;2024-01-11T05:24:24;103144.66;;;14.34;8.86
64698;BME280;51124;53.394;-6.294;2024-01-11T05:26:51;103141.04;;;14.38;8.92
64698;BME280;51124;53.394;-6.294;2024-01-11T05:29:19;103142.25;;;17.25;9.21
64698;BME280;51124;53.394;-6.294;2024-01-11T05:31:46;103140.08;;;16.48;9.59
64698;BME280;51124;53.394;-6.294;2024-01-11T05:34:13;103149.17;;;15.34;9.70
64698;BME280;51124;53.394;-6.294;2024-01-11T05:36:41;103141.72;;;15.38;9.62
64698;BME280;51124;53.394;-6.294;2024-01-11T05:39:08;103149.75;;;17.70;10.03
64698;BME280;51124;53.394;-6.294;2024-01-11T05:41:36;103151.55;;;17.19;10.42
64698;BME280;51124;53.394;-6.294;2024-01-11T05:44:03;103151.07;;;16.85;10.71
64698;BME280;51124;53.394;-6.294;2024-01-11T05:46:31;103155.84;;;17.25;10.81
64698;BME280;51124;53.394;-6.294;2024-01-11T05:48:58;103155.37;;;17.18;10.90
64698;BME280;51124;53.394;-6.294;2024-01-11T05:51:26;103162.05;;;16.93;10.95
64698;BME280;51124;53.394;-6.294;2024-01-11T05:53:54;103158.82;;;17.13;10.98
64698;BME280;51124;53.394;-6.294;2024-01-11T05:56:21;103160.45;;;16.86;10.97
64698;BME280;51124;53.394;-6.294;2024-01-11T05:58:49;103164.50;;;16.67;11.16
64698;BME280;51124;53.394;-6.294;2024-01-11T06:01:16;103157.80;;;16.57;11.22
64698;BME280;51124;53.394;-6.294;2024-01-11T06:03:44;103157.26;;;16.76;11.31
64698;BME280;51124;53.394;-6.294;2024-01-11T06:06:12;103160.27;;;16.86;11.21
64698;BME280;51124;53.394;-6.294;2024-01-11T06:08:39;103157.10;;;16.56;11.24
64698;BME280;51124;53.394;-6.294;2024-01-11T06:11:07;103163.23;;;16.37;11.20
64698;BME280;51124;53.394;-6.294;2024-01-11T06:13:35;103161.67;;;17.47;11.21
64698;BME280;51124;53.394;-6.294;2024-01-11T06:16:02;103158.21;;;16.45;11.27
64698;BME280;51124;53.394;-6.294;2024-01-11T06:18:30;103163.23;;;16.34;11.25
64698;BME280;51124;53.394;-6.294;2024-01-11T06:20:57;103173.68;;;16.65;11.26
64698;BME280;51124;53.394;-6.294;2024-01-11T06:23:26;103176.61;;;16.96;11.21
64698;BME280;51124;53.394;-6.294;2024-01-11T06:25:54;103180.97;;;16.47;11.32
64698;BME280;51124;53.394;-6.294;2024-01-11T06:28:21;103186.37;;;15.77;11.17
64698;BME280;51124;53.394;-6.294;2024-01-11T06:30:49;103196.83;;;14.11;10.91
64698;BME280;51124;53.394;-6.294;2024-01-11T06:33:16;103195.14;;;14.35;10.52
64698;BME280;51124;53.394;-6.294;2024-01-11T06:35:43;103196.70;;;14.29;10.27
64698;BME280;51124;53.394;-6.294;2024-01-11T06:38:11;103201.50;;;14.83;10.02
64698;BME280;51124;53.394;-6.294;2024-01-11T06:40:38;103204.83;;;14.94;9.88
64698;BME280;51124;53.394;-6.294;2024-01-11T06:43:06;103203.69;;;14.03;9.75
64698;BME280;51124;53.394;-6.294;2024-01-11T06:45:33;103209.41;;;14.49;9.60
64698;BME280;51124;53.394;-6.294;2024-01-11T06:48:01;103215.59;;;13.97;9.54
64698;BME280;51124;53.394;-6.294;2024-01-11T06:50:28;103223.15;;;14.83;9.51
64698;BME280;51124;53.394;-6.294;2024-01-11T06:52:55;103226.32;;;14.67;9.36
64698;BME280;51124;53.394;-6.294;2024-01-11T06:55:23;103229.00;;;14.37;9.40
64698;BME280;51124;53.394;-6.294;2024-01-11T06:57:50;103228.99;;;14.80;9.32
64698;BME280;51124;53.394;-6.294;2024-01-11T07:00:18;103232.03;;;14.57;9.28
64698;BME280;51124;53.394;-6.294;2024-01-11T07:02:46;103236.49;;;13.84;9.28
64698;BME280;51124;53.394;-6.294;2024-01-11T07:05:13;103237.87;;;14.69;9.19
64698;BME280;51124;53.394;-6.294;2024-01-11T07:07:41;103230.03;;;14.30;9.14
64698;BME280;51124;53.394;-6.294;2024-01-11T07:10:09;103239.59;;;15.08;9.13
64698;BME280;51124;53.394;-6.294;2024-01-11T07:12:36;103238.31;;;14.35;9.11
64698;BME280;51124;53.394;-6.294;2024-01-11T07:15:04;103236.30;;;13.77;9.05
64698;BME280;51124;53.394;-6.294;2024-01-11T07:17:32;103234.24;;;13.97;9.10
64698;BME280;51124;53.394;-6.294;2024-01-11T07:19:59;103237.77;;;14.65;8.95
64698;BME280;51124;53.394;-6.294;2024-01-11T07:22:26;103237.95;;;14.26;9.07
64698;BME280;51124;53.394;-6.294;2024-01-11T07:24:54;103236.93;;;14.06;9.04
64698;BME280;51124;53.394;-6.294;2024-01-11T07:27:21;103241.80;;;14.52;9.04
64698;BME280;51124;53.394;-6.294;2024-01-11T07:29:49;103247.90;;;13.81;9.00
64698;BME280;51124;53.394;-6.294;2024-01-11T07:32:16;103248.20;;;14.75;8.96
64698;BME280;51124;53.394;-6.294;2024-01-11T07:34:43;103248.74;;;14.37;8.94
64698;BME280;51124;53.394;-6.294;2024-01-11T07:37:11;103258.95;;;14.25;8.89
64698;BME280;51124;53.394;-6.294;2024-01-11T07:39:38;103263.03;;;14.52;8.82
64698;BME280;51124;53.394;-6.294;2024-01-11T07:42:06;103268.47;;;14.02;8.93
64698;BME280;51124;53.394;-6.294;2024-01-11T07:44:33;103266.87;;;13.93;9.03
64698;BME280;51124;53.394;-6.294;2024-01-11T07:47:01;103272.64;;;14.80;8.91
64698;BME280;51124;53.394;-6.294;2024-01-11T07:49:28;103276.17;;;14.92;8.84
64698;BME280;51124;53.394;-6.294;2024-01-11T07:51:55;103275.65;;;14.45;8.76
64698;BME280;51124;53.394;-6.294;2024-01-11T07:54:23;103274.90;;;15.57;8.64
64698;BME280;51124;53.394;-6.294;2024-01-11T07:56:50;103274.67;;;15.17;8.62
64698;BME280;51124;53.394;-6.294;2024-01-11T07:59:17;103275.02;;;15.22;8.52
64698;BME280;51124;53.394;-6.294;2024-01-11T08:01:45;103278.84;;;17.26;8.60
64698;BME280;51124;53.394;-6.294;2024-01-11T08:04:12;103281.66;;;15.65;8.53
64698;BME280;51124;53.394;-6.294;2024-01-11T08:06:40;103279.17;;;14.68;8.57
64698;BME280;51124;53.394;-6.294;2024-01-11T08:09:07;103282.56;;;15.86;8.50
64698;BME280;51124;53.394;-6.294;2024-01-11T08:11:35;103289.71;;;15.67;8.51
64698;BME280;51124;53.394;-6.294;2024-01-11T08:14:02;103303.91;;;16.76;8.66
64698;BME280;51124;53.394;-6.294;2024-01-11T08:16:30;103307.03;;;15.34;8.76
64698;BME280;51124;53.394;-6.294;2024-01-11T08:18:57;103313.38;;;15.39;8.72
64698;BME280;51124;53.394;-6.294;2024-01-11T08:21:25;103316.78;;;15.18;8.58
64698;BME280;51124;53.394;-6.294;2024-01-11T08:23:52;103314.48;;;15.71;8.37
64698;BME280;51124;53.394;-6.294;2024-01-11T08:26:19;103320.22;;;15.92;8.47
64698;BME280;51124;53.394;-6.294;2024-01-11T08:28:47;103319.46;;;15.42;8.52
64698;BME280;51124;53.394;-6.294;2024-01-11T08:31:14;103318.61;;;18.51;8.27
64698;BME280;51124;53.394;-6.294;2024-01-11T08:33:42;103327.12;;;17.80;8.77
64698;BME280;51124;53.394;-6.294;2024-01-11T08:36:09;103325.48;;;17.45;8.96
64698;BME280;51124;53.394;-6.294;2024-01-11T08:38:37;103326.94;;;16.73;8.91
64698;BME280;51124;53.394;-6.294;2024-01-11T08:41:04;103329.32;;;19.55;8.85
64698;BME280;51124;53.394;-6.294;2024-01-11T08:43:32;103331.72;;;19.68;9.13
64698;BME280;51124;53.394;-6.294;2024-01-11T08:46:00;103339.81;;;18.69;9.69
64698;BME280;51124;53.394;-6.294;2024-01-11T08:48:27;103342.44;;;18.49;9.99
64698;BME280;51124;53.394;-6.294;2024-01-11T08:50:55;103350.92;;;19.32;10.12
64698;BME280;51124;53.394;-6.294;2024-01-11T08:53:23;103354.10;;;19.13;10.05
64698;BME280;51124;53.394;-6.294;2024-01-11T08:55:50;103355.85;;;18.70;10.25
64698;BME280;51124;53.394;-6.294;2024-01-11T08:58:18;103359.53;;;18.82;10.34
64698;BME280;51124;53.394;-6.294;2024-01-11T09:00:51;103365.48;;;19.24;10.33
64698;BME280;51124;53.394;-6.294;2024-01-11T09:03:18;103361.19;;;19.18;10.36
64698;BME280;51124;53.394;-6.294;2024-01-11T09:05:46;103364.59;;;19.83;10.40
64698;BME280;51124;53.394;-6.294;2024-01-11T09:08:14;103360.88;;;20.01;10.53
64698;BME280;51124;53.394;-6.294;2024-01-11T09:10:42;103362.16;;;19.92;10.52
64698;BME280;51124;53.394;-6.294;2024-01-11T09:13:09;103366.05;;;19.32;10.52
64698;BME280;51124;53.394;-6.294;2024-01-11T09:15:36;103368.77;;;19.64;10.49
64698;BME280;51124;53.394;-6.294;2024-01-11T09:18:07;103371.12;;;19.59;10.48
64698;BME280;51124;53.394;-6.294;2024-01-11T09:20:35;103376.84;;;19.93;10.60
64698;BME280;51124;53.394;-6.294;2024-01-11T09:23:04;103378.21;;;20.12;10.37
64698;BME280;51124;53.394;-6.294;2024-01-11T09:25:32;103381.86;;;19.59;10.58
64698;BME280;51124;53.394;-6.294;2024-01-11T09:28:05;103382.47;;;20.22;9.99
64698;BME280;51124;53.394;-6.294;2024-01-11T09:30:35;103385.03;;;20.28;9.81
64698;BME280;51124;53.394;-6.294;2024-01-11T09:33:02;103388.26;;;18.08;9.99
64698;BME280;51124;53.394;-6.294;2024-01-11T09:35:30;103393.45;;;18.55;9.64
64698;BME280;51124;53.394;-6.294;2024-01-11T09:37:57;103397.71;;;18.23;9.52
64698;BME280;51124;53.394;-6.294;2024-01-11T09:40:25;103400.92;;;18.09;9.21
64698;BME280;51124;53.394;-6.294;2024-01-11T09:42:52;103398.22;;;19.02;9.04
64698;BME280;51124;53.394;-6.294;2024-01-11T09:45:20;103396.92;;;18.38;9.17
64698;BME280;51124;53.394;-6.294;2024-01-11T09:47:48;103392.56;;;18.43;9.00
64698;BME280;51124;53.394;-6.294;2024-01-11T09:50:17;103394.63;;;17.92;9.13
64698;BME280;51124;53.394;-6.294;2024-01-11T09:52:49;103395.25;;;18.32;8.92
64698;BME280;51124;53.394;-6.294;2024-01-11T09:55:17;103401.87;;;17.85;9.16
64698;BME280;51124;53.394;-6.294;2024-01-11T09:57:47;103399.98;;;18.29;9.02
64698;BME280;51124;53.394;-6.294;2024-01-11T10:00:16;103406.98;;;17.71;9.05
64698;BME280;51124;53.394;-6.294;2024-01-11T10:02:45;103411.96;;;17.72;9.20
64698;BME280;51124;53.394;-6.294;2024-01-11T10:05:13;103418.24;;;17.59;9.18
64698;BME280;51124;53.394;-6.294;2024-01-11T10:07:42;103426.74;;;17.85;9.15
64698;BME280;51124;53.394;-6.294;2024-01-11T10:10:10;103437.34;;;17.55;9.16
64698;BME280;51124;53.394;-6.294;2024-01-11T10:12:38;103440.52;;;16.94;9.25
64698;BME280;51124;53.394;-6.294;2024-01-11T10:15:08;103443.87;;;16.48;9.35
64698;BME280;51124;53.394;-6.294;2024-01-11T10:17:35;103443.00;;;17.03;9.35
64698;BME280;51124;53.394;-6.294;2024-01-11T10:20:03;103445.07;;;16.39;9.32
64698;BME280;51124;53.394;-6.294;2024-01-11T10:22:31;103445.71;;;16.70;9.30
64698;BME280;51124;53.394;-6.294;2024-01-11T10:25:16;103444.39;;;16.80;9.36
64698;BME280;51124;53.394;-6.294;2024-01-11T10:27:33;103441.26;;;17.94;8.97
64698;BME280;51124;53.394;-6.294;2024-01-11T10:30:01;103444.96;;;16.95;9.30
64698;BME280;51124;53.394;-6.294;2024-01-11T10:32:30;103443.56;;;17.13;9.40
64698;BME280;51124;53.394;-6.294;2024-01-11T10:34:58;103456.68;;;16.08;9.52
64698;BME280;51124;53.394;-6.294;2024-01-11T10:37:25;103464.28;;;16.30;9.42
64698;BME280;51124;53.394;-6.294;2024-01-11T10:39:54;103460.12;;;16.92;9.30
64698;BME280;51124;53.394;-6.294;2024-01-11T10:42:26;103462.17;;;16.67;9.38
64698;BME280;51124;53.394;-6.294;2024-01-11T10:44:56;103461.54;;;17.31;9.32
64698;BME280;51124;53.394;-6.294;2024-01-11T10:47:27;103459.28;;;17.94;9.16
64698;BME280;51124;53.394;-6.294;2024-01-11T10:49:58;103465.47;;;17.21;9.11
64698;BME280;51124;53.394;-6.294;2024-01-11T10:52:33;103458.32;;;16.72;9.05
64698;BME280;51124;53.394;-6.294;2024-01-11T10:55:04;103466.23;;;17.13;8.91
64698;BME280;51124;53.394;-6.294;2024-01-11T10:57:32;103463.85;;;16.92;8.92
64698;BME280;51124;53.394;-6.294;2024-01-11T11:00:00;103462.54;;;17.40;8.71
64698;BME280;51124;53.394;-6.294;2024-01-11T11:02:29;103474.34;;;17.37;8.80
64698;BME280;51124;53.394;-6.294;2024-01-11T11:04:57;103476.14;;;16.89;8.92
64698;BME280;51124;53.394;-6.294;2024-01-11T11:07:26;103479.07;;;17.86;8.73
64698;BME280;51124;53.394;-6.294;2024-01-11T11:09:54;103477.80;;;18.08;8.75
64698;BME280;51124;53.394;-6.294;2024-01-11T11:12:23;103487.09;;;17.86;8.74
64698;BME280;51124;53.394;-6.294;2024-01-11T11:14:52;103486.02;;;17.67;8.99
64698;BME280;51124;53.394;-6.294;2024-01-11T11:17:20;103486.93;;;17.62;8.66
64698;BME280;51124;53.394;-6.294;2024-01-11T11:19:48;103491.27;;;17.11;8.76
64698;BME280;51124;53.394;-6.294;2024-01-11T11:22:15;103488.67;;;18.12;8.56
64698;BME280;51124;53.394;-6.294;2024-01-11T11:24:43;103492.30;;;17.38;8.90
64698;BME280;51124;53.394;-6.294;2024-01-11T11:27:12;103488.35;;;19.18;8.82
64698;BME280;51124;53.394;-6.294;2024-01-11T11:29:41;103491.64;;;17.61;8.79
64698;BME280;51124;53.394;-6.294;2024-01-11T11:32:10;103489.38;;;16.83;8.51
64698;BME280;51124;53.394;-6.294;2024-01-11T11:34:43;103492.31;;;18.78;8.61
64698;BME280;51124;53.394;-6.294;2024-01-11T11:37:11;103489.39;;;18.41;8.54
64698;BME280;51124;53.394;-6.294;2024-01-11T11:39:38;103486.88;;;18.84;8.45
64698;BME280;51124;53.394;-6.294;2024-01-11T11:42:09;103489.14;;;20.77;8.86
64698;BME280;51124;53.394;-6.294;2024-01-11T11:44:39;103487.82;;;20.56;9.31
64698;BME280;51124;53.394;-6.294;2024-01-11T11:47:36;103488.18;;;20.20;9.54
64698;BME280;51124;53.394;-6.294;2024-01-11T11:50:06;103486.05;;;19.58;9.52
64698;BME280;51124;53.394;-6.294;2024-01-11T11:52:04;103489.71;;;22.59;9.39
64698;BME280;51124;53.394;-6.294;2024-01-11T11:54:32;103493.23;;;22.67;9.84
64698;BME280;51124;53.394;-6.294;2024-01-11T11:56:59;103498.30;;;21.48;10.16
64698;BME280;51124;53.394;-6.294;2024-01-11T11:59:27;103495.79;;;22.05;10.34
64698;BME280;51124;53.394;-6.294;2024-01-11T12:01:54;103497.85;;;21.81;10.48
64698;BME280;51124;53.394;-6.294;2024-01-11T12:04:23;103490.38;;;21.74;10.58
64698;BME280;51124;53.394;-6.294;2024-01-11T12:06:52;103494.75;;;22.10;10.49
64698;BME280;51124;53.394;-6.294;2024-01-11T12:09:20;103490.55;;;21.50;10.50
64698;BME280;51124;53.394;-6.294;2024-01-11T12:11:52;103490.13;;;21.75;10.69
64698;BME280;51124;53.394;-6.294;2024-01-11T12:14:20;103492.93;;;21.45;10.80
64698;BME280;51124;53.394;-6.294;2024-01-11T12:16:57;103489.98;;;21.38;10.77
64698;BME280;51124;53.394;-6.294;2024-01-11T12:19:15;103489.35;;;21.59;10.73
64698;BME280;51124;53.394;-6.294;2024-01-11T12:21:44;103482.90;;;22.48;10.17
64698;BME280;51124;53.394;-6.294;2024-01-11T12:24:12;103484.78;;;22.64;9.52
64698;BME280;51124;53.394;-6.294;2024-01-11T12:26:39;103485.74;;;22.21;9.40
64698;BME280;51124;53.394;-6.294;2024-01-11T12:29:07;103486.76;;;21.32;9.49
64698;BME280;51124;53.394;-6.294;2024-01-11T12:31:35;103485.40;;;21.92;9.52
64698;BME280;51124;53.394;-6.294;2024-01-11T12:34:03;103482.62;;;21.48;9.56
64698;BME280;51124;53.394;-6.294;2024-01-11T12:36:31;103476.97;;;20.71;9.67
64698;BME280;51124;53.394;-6.294;2024-01-11T12:39:00;103476.50;;;20.83;9.75
64698;BME280;51124;53.394;-6.294;2024-01-11T12:41:27;103475.98;;;21.33;9.66
64698;BME280;51124;53.394;-6.294;2024-01-11T12:43:55;103468.57;;;20.08;9.59
64698;BME280;51124;53.394;-6.294;2024-01-11T12:46:23;103464.68;;;19.63;9.52
64698;BME280;51124;53.394;-6.294;2024-01-11T12:48:51;103458.61;;;19.03;9.32
64698;BME280;51124;53.394;-6.294;2024-01-11T12:51:18;103446.50;;;18.57;9.06